createdAt,value
2022-08-19T00:01:30.579Z,22.00
2022-08-19T00:03:58.849Z,22.77
2022-08-19T00:06:27.053Z,23.53
2022-08-19T00:08:54.791Z,24.60
2022-08-19T00:11:25.575Z,25.50
2022-08-19T00:13:54.030Z,26.13
2022-08-19T00:16:26.869Z,24.30
2022-08-19T00:18:56.194Z,22.17
2022-08-19T00:21:24.258Z,24.40
2022-08-19T00:23:52.042Z,25.70
2022-08-19T00:26:19.755Z,20.47
2022-08-19T00:28:47.626Z,22.10
2022-08-19T00:31:17.219Z,22.33
2022-08-19T00:33:46.469Z,21.93
2022-08-19T00:36:14.264Z,22.27
2022-08-19T00:38:43.865Z,20.87
2022-08-19T00:41:14.098Z,22.83
2022-08-19T00:43:42.142Z,23.50
2022-08-19T00:46:10.106Z,24.63
2022-08-19T00:48:38.216Z,21.50
2022-08-19T00:51:08.058Z,22.67
2022-08-19T00:53:36.066Z,24.67
2022-08-19T00:56:07.236Z,22.07
2022-08-19T00:58:37.078Z,20.73
2022-08-19T01:01:06.751Z,23.07
2022-08-19T01:03:57.180Z,23.93
2022-08-19T01:06:23.805Z,22.67
2022-08-19T01:08:51.634Z,21.80
2022-08-19T01:11:19.621Z,23.40
2022-08-19T01:13:49.765Z,25.03
2022-08-19T01:16:19.730Z,24.20
2022-08-19T01:18:47.498Z,20.97
2022-08-19T01:21:23.077Z,25.17
2022-08-19T01:23:52.269Z,21.40
2022-08-19T01:26:24.200Z,25.00
2022-08-19T01:28:54.779Z,24.40
2022-08-19T01:31:31.388Z,24.37
2022-08-19T01:34:01.633Z,24.13
2022-08-19T01:36:33.313Z,23.50
2022-08-19T01:39:03.324Z,25.00
2022-08-19T01:41:31.019Z,24.03
2022-08-19T01:44:13.644Z,22.53
2022-08-19T01:46:48.135Z,21.97
2022-08-19T01:49:16.534Z,24.00
2022-08-19T01:51:44.267Z,27.60
2022-08-19T01:54:27.230Z,26.03
2022-08-19T01:56:59.769Z,25.37
2022-08-19T01:59:27.576Z,23.87
2022-08-19T02:01:55.379Z,24.50
2022-08-19T02:04:24.299Z,25.10
2022-08-19T02:06:52.129Z,24.30
2022-08-19T02:09:21.398Z,27.80
2022-08-19T02:11:49.160Z,25.23
2022-08-19T02:14:16.908Z,29.90
2022-08-19T02:16:44.618Z,26.67
2022-08-19T02:19:12.434Z,30.77
2022-08-19T02:21:40.158Z,26.63
2022-08-19T02:24:08.315Z,26.70
2022-08-19T02:26:37.515Z,32.43
2022-08-19T02:29:05.960Z,27.10
2022-08-19T02:31:34.183Z,31.20
2022-08-19T02:34:02.300Z,29.40
2022-08-19T02:36:31.165Z,30.30
2022-08-19T02:38:57.961Z,32.90
2022-08-19T02:41:27.861Z,31.63
2022-08-19T02:44:22.936Z,29.37
2022-08-19T02:46:49.028Z,28.30
2022-08-19T02:49:19.869Z,31.37
2022-08-19T02:51:48.463Z,32.10
2022-08-19T02:54:16.908Z,30.90
2022-08-19T02:56:45.896Z,31.80
2022-08-19T02:59:15.010Z,31.60
2022-08-19T03:01:43.883Z,38.37
2022-08-19T03:04:14.512Z,30.93
2022-08-19T03:06:44.169Z,33.23
2022-08-19T03:09:13.284Z,36.43
2022-08-19T03:11:41.430Z,35.20
2022-08-19T03:14:11.420Z,41.20
2022-08-19T03:16:45.127Z,36.97
2022-08-19T03:19:13.074Z,39.70
2022-08-19T03:21:40.823Z,31.00
2022-08-19T03:24:10.330Z,29.10
2022-08-19T03:26:41.245Z,39.57
2022-08-19T03:29:11.646Z,36.33
2022-08-19T03:31:52.473Z,36.37
2022-08-19T03:34:23.568Z,36.83
2022-08-19T03:36:51.282Z,37.50
2022-08-19T03:39:19.309Z,33.70
2022-08-19T03:41:49.933Z,36.93
2022-08-19T03:44:38.565Z,32.27
2022-08-19T03:47:07.933Z,37.17
2022-08-19T03:49:36.855Z,33.70
2022-08-19T03:52:08.156Z,37.67
2022-08-19T03:54:36.829Z,40.70
2022-08-19T03:57:05.165Z,36.13
2022-08-19T03:59:35.269Z,36.20
2022-08-19T04:02:09.886Z,39.50
2022-08-19T04:04:39.861Z,42.00
2022-08-19T04:07:07.727Z,40.83
2022-08-19T04:09:37.129Z,36.93
2022-08-19T04:12:06.444Z,35.90
2022-08-19T04:14:34.866Z,41.60
2022-08-19T04:17:04.410Z,41.53
2022-08-19T04:19:33.685Z,35.07
2022-08-19T04:22:02.917Z,36.37
2022-08-19T04:24:30.664Z,38.83
2022-08-19T04:26:59.095Z,37.80
2022-08-19T04:29:27.949Z,39.83
2022-08-19T04:31:57.608Z,39.00
2022-08-19T04:34:27.800Z,42.60
2022-08-19T04:36:58.117Z,41.10
2022-08-19T04:39:50.492Z,41.67
2022-08-19T04:42:37.297Z,38.70
2022-08-19T04:45:06.436Z,35.67
2022-08-19T04:47:47.576Z,37.57
2022-08-19T04:50:25.657Z,38.60
2022-08-19T04:52:54.371Z,38.87
2022-08-19T04:55:24.006Z,44.40
2022-08-19T04:57:51.707Z,40.97
2022-08-19T05:00:19.688Z,45.60
2022-08-19T05:02:47.555Z,41.10
2022-08-19T05:05:15.327Z,41.70
2022-08-19T05:07:43.063Z,42.07
2022-08-19T05:10:12.497Z,42.43
2022-08-19T05:12:41.620Z,47.60
2022-08-19T05:15:10.654Z,44.70
2022-08-19T05:17:39.293Z,43.80
2022-08-19T05:20:26.143Z,46.00
2022-08-19T05:22:54.187Z,38.73
2022-08-19T05:25:23.488Z,41.10
2022-08-19T05:27:52.694Z,36.20
2022-08-19T05:30:24.385Z,41.87
2022-08-19T05:33:10.960Z,39.83
2022-08-19T05:35:39.030Z,42.17
2022-08-19T05:38:08.245Z,47.27
2022-08-19T05:40:37.913Z,43.47
2022-08-19T05:43:09.176Z,49.37
2022-08-19T05:45:41.355Z,57.73
2022-08-19T05:48:12.048Z,42.97
2022-08-19T05:50:40.608Z,44.73
2022-08-19T05:53:09.752Z,39.30
2022-08-19T05:55:39.101Z,44.37
2022-08-19T05:58:08.995Z,40.53
2022-08-19T06:00:37.037Z,40.10
2022-08-19T06:03:11.371Z,38.10
2022-08-19T06:05:50.213Z,38.07
2022-08-19T06:08:20.991Z,53.43
2022-08-19T06:11:15.345Z,37.87
2022-08-19T06:13:46.084Z,39.73
2022-08-19T06:16:13.957Z,49.03
2022-08-19T06:18:41.801Z,51.00
2022-08-19T06:21:09.702Z,41.33
2022-08-19T06:23:37.435Z,35.87
2022-08-19T06:26:05.309Z,46.47
2022-08-19T06:28:33.950Z,48.70
2022-08-19T06:31:08.372Z,48.23
2022-08-19T06:33:36.101Z,45.47
2022-08-19T06:36:03.964Z,36.63
2022-08-19T06:38:31.668Z,39.33
2022-08-19T06:41:07.640Z,45.40
2022-08-19T06:43:37.036Z,38.10
2022-08-19T06:46:14.844Z,39.23
2022-08-19T06:48:45.120Z,48.33
2022-08-19T06:51:16.547Z,42.20
2022-08-19T06:53:48.080Z,42.57
2022-08-19T06:56:17.847Z,39.40
2022-08-19T06:58:45.683Z,43.27
2022-08-19T07:01:15.354Z,44.80
2022-08-19T07:03:43.219Z,43.30
2022-08-19T07:06:41.165Z,39.27
2022-08-19T07:09:04.472Z,43.50
2022-08-19T07:11:33.521Z,42.30
2022-08-19T07:14:02.122Z,37.73
2022-08-19T07:16:32.806Z,44.67
2022-08-19T07:19:11.819Z,37.93
2022-08-19T07:21:43.913Z,41.77
2022-08-19T07:24:13.216Z,37.10
2022-08-19T07:26:43.561Z,37.73
2022-08-19T07:29:13.707Z,39.77
2022-08-19T07:31:43.489Z,41.93
2022-08-19T07:34:14.414Z,37.00
2022-08-19T07:36:44.700Z,40.20
2022-08-19T07:39:15.550Z,40.33
2022-08-19T07:41:43.716Z,37.03
2022-08-19T07:44:13.380Z,37.23
2022-08-19T07:46:46.492Z,34.00
2022-08-19T07:49:20.323Z,36.73
2022-08-19T07:51:49.682Z,38.83
2022-08-19T07:54:18.325Z,37.90
2022-08-19T07:56:46.196Z,41.57
2022-08-19T07:59:14.036Z,38.47
2022-08-19T08:01:43.311Z,37.63
2022-08-19T08:04:28.479Z,36.77
2022-08-19T08:07:13.615Z,33.90
2022-08-19T08:09:44.678Z,34.83
2022-08-19T08:12:34.103Z,36.47
2022-08-19T08:15:08.375Z,34.00
2022-08-19T08:17:51.503Z,34.90
2022-08-19T08:20:20.930Z,34.93
2022-08-19T08:23:06.974Z,37.70
2022-08-19T08:25:36.216Z,37.70
2022-08-19T08:28:05.109Z,37.63
2022-08-19T08:30:36.830Z,37.40
2022-08-19T08:33:07.039Z,38.03
2022-08-19T08:35:35.491Z,37.90
2022-08-19T08:38:05.854Z,36.67
2022-08-19T08:40:44.509Z,35.93
2022-08-19T08:43:24.459Z,35.80
2022-08-19T08:45:57.042Z,37.37
2022-08-19T08:48:33.580Z,36.13
2022-08-19T08:51:07.675Z,37.13
2022-08-19T08:53:41.772Z,36.37
2022-08-19T08:56:13.340Z,37.93
2022-08-19T08:58:54.696Z,34.97
2022-08-19T09:01:23.428Z,36.63
2022-08-19T09:03:53.133Z,36.50
2022-08-19T09:06:28.017Z,34.67
2022-08-19T09:09:12.045Z,42.43
2022-08-19T09:11:53.095Z,33.40
2022-08-19T09:14:50.146Z,34.10
2022-08-19T09:17:20.112Z,31.80
2022-08-19T09:19:56.196Z,34.57
2022-08-19T09:22:26.100Z,36.57
2022-08-19T09:24:56.411Z,34.50
2022-08-19T09:27:42.325Z,32.43
2022-08-19T09:30:17.200Z,35.40
2022-08-19T09:32:46.446Z,36.33
2022-08-19T09:35:16.469Z,31.93
2022-08-19T09:37:44.879Z,33.53
2022-08-19T09:40:13.904Z,28.57
2022-08-19T09:42:49.966Z,32.77
2022-08-19T09:45:22.603Z,77.57
2022-08-19T09:47:52.143Z,36.83
2022-08-19T09:50:25.383Z,29.60
2022-08-19T09:52:57.196Z,33.67
2022-08-19T09:55:31.455Z,34.60
2022-08-19T09:58:03.365Z,27.57
2022-08-19T10:00:32.668Z,29.50
2022-08-19T10:03:01.086Z,27.30
2022-08-19T10:05:48.924Z,26.23
2022-08-19T10:08:18.487Z,26.10
2022-08-19T10:10:49.809Z,27.87
2022-08-19T10:13:22.929Z,26.30
2022-08-19T10:15:52.059Z,27.77
2022-08-19T10:18:22.011Z,23.40
2022-08-19T10:20:53.457Z,28.23
2022-08-19T10:23:22.418Z,29.63
2022-08-19T10:25:51.368Z,24.50
2022-08-19T10:28:19.661Z,23.90
2022-08-19T10:30:48.820Z,29.13
2022-08-19T10:33:38.228Z,27.77
2022-08-19T10:36:09.185Z,24.70
2022-08-19T10:38:37.022Z,26.07
2022-08-19T10:41:13.275Z,24.17
2022-08-19T10:43:41.721Z,27.10
2022-08-19T10:46:13.887Z,28.53
2022-08-19T10:48:45.389Z,23.20
2022-08-19T10:51:33.558Z,27.67
2022-08-19T10:54:02.212Z,21.43
2022-08-19T10:56:52.819Z,22.17
2022-08-19T10:59:23.251Z,22.57
2022-08-19T11:01:55.749Z,21.67
2022-08-19T11:04:28.865Z,21.53
2022-08-19T11:06:58.848Z,18.70
2022-08-19T11:09:33.705Z,18.47
2022-08-19T11:12:02.975Z,18.53
2022-08-19T11:14:34.230Z,19.70
2022-08-19T11:17:03.205Z,21.43
2022-08-19T11:19:31.492Z,20.87
2022-08-19T11:22:03.977Z,23.17
2022-08-19T11:24:32.497Z,22.10
2022-08-19T11:27:05.713Z,22.33
2022-08-19T11:29:35.335Z,25.37
2022-08-19T11:32:06.539Z,20.30
2022-08-19T11:34:35.941Z,19.63
2022-08-19T11:37:06.795Z,20.73
2022-08-19T11:39:36.416Z,22.50
2022-08-19T11:42:26.073Z,17.87
2022-08-19T11:44:54.120Z,16.97
2022-08-19T11:47:22.822Z,19.00
2022-08-19T11:49:50.583Z,18.20
2022-08-19T11:52:19.679Z,23.13
2022-08-19T11:54:47.400Z,24.43
2022-08-19T11:57:17.779Z,17.07
2022-08-19T11:59:50.854Z,16.77
2022-08-19T12:02:18.651Z,17.27
2022-08-19T12:04:46.401Z,16.67
2022-08-19T12:07:14.162Z,17.43
2022-08-19T12:09:43.775Z,15.33
2022-08-19T12:12:13.779Z,18.40
2022-08-19T12:14:41.490Z,17.70
2022-08-19T12:17:10.134Z,16.40
2022-08-19T12:19:38.541Z,17.00
2022-08-19T12:22:08.328Z,18.20
2022-08-19T12:24:36.828Z,17.20
2022-08-19T12:27:06.397Z,21.70
2022-08-19T12:29:41.106Z,19.13
2022-08-19T12:32:10.410Z,18.97
2022-08-19T12:34:40.753Z,16.37
2022-08-19T12:37:09.038Z,18.77
2022-08-19T12:39:39.139Z,17.73
2022-08-19T12:42:10.046Z,17.57
2022-08-19T12:44:38.704Z,18.77
2022-08-19T12:47:10.807Z,18.07
2022-08-19T12:49:53.839Z,20.83
2022-08-19T12:52:24.672Z,18.93
2022-08-19T12:54:54.661Z,19.27
2022-08-19T12:57:31.965Z,21.00
2022-08-19T13:00:04.851Z,18.23
2022-08-19T13:02:38.804Z,20.83
2022-08-19T13:05:09.140Z,24.70
2022-08-19T13:07:38.237Z,19.00
2022-08-19T13:10:07.744Z,23.30
2022-08-19T13:12:37.056Z,23.60
2022-08-19T13:15:10.908Z,25.47
2022-08-19T13:17:40.316Z,24.83
2022-08-19T13:20:09.694Z,26.57
2022-08-19T13:22:38.159Z,30.60
2022-08-19T13:25:06.680Z,32.57
2022-08-19T13:27:36.494Z,30.50
2022-08-19T13:30:24.342Z,39.33
2022-08-19T13:33:09.799Z,37.20
2022-08-19T13:35:37.548Z,38.53
2022-08-19T13:38:05.794Z,38.63
2022-08-19T13:40:41.322Z,37.67
2022-08-19T13:43:22.420Z,38.20
2022-08-19T13:45:51.242Z,42.80
2022-08-19T13:48:19.272Z,43.30
2022-08-19T13:50:49.085Z,50.40
2022-08-19T13:53:18.740Z,47.97
2022-08-19T13:55:47.480Z,46.70
2022-08-19T13:58:16.580Z,56.00
2022-08-19T14:00:46.788Z,55.60
2022-08-19T14:03:15.017Z,55.07
2022-08-19T14:05:42.819Z,52.80
2022-08-19T14:08:10.975Z,55.20
2022-08-19T14:10:38.823Z,62.30
2022-08-19T14:13:06.755Z,55.47
2022-08-19T14:15:36.158Z,59.83
2022-08-19T14:18:03.954Z,68.87
2022-08-19T14:20:31.758Z,55.20
2022-08-19T14:23:00.424Z,57.00
2022-08-19T14:25:30.848Z,57.67
2022-08-19T14:27:59.319Z,45.73
2022-08-19T14:30:29.181Z,50.27
2022-08-19T14:33:00.183Z,49.23
2022-08-19T14:35:29.924Z,45.70
2022-08-19T14:37:58.980Z,44.30
2022-08-19T14:40:29.630Z,43.97
2022-08-19T14:43:04.688Z,40.80
2022-08-19T14:45:36.808Z,39.57
2022-08-19T14:48:07.302Z,38.40
2022-08-19T14:50:37.007Z,38.40
2022-08-19T14:53:12.061Z,41.20
2022-08-19T14:55:43.574Z,39.43
2022-08-19T14:58:28.468Z,33.33
2022-08-19T15:00:59.431Z,31.33
2022-08-19T15:03:28.854Z,31.00
2022-08-19T15:05:58.379Z,35.50
2022-08-19T15:08:27.078Z,34.03
2022-08-19T15:10:55.127Z,26.90
2022-08-19T15:13:23.394Z,29.43
2022-08-19T15:15:52.663Z,32.70
2022-08-19T15:18:21.344Z,27.73
2022-08-19T15:20:50.847Z,28.37
2022-08-19T15:23:20.371Z,26.63
2022-08-19T15:25:48.143Z,32.17
2022-08-19T15:28:17.300Z,29.83
2022-08-19T15:30:45.408Z,25.57
2022-08-19T15:33:15.206Z,25.77
2022-08-19T15:35:43.589Z,31.10
2022-08-19T15:38:13.927Z,27.40
2022-08-19T15:40:42.754Z,28.77
2022-08-19T15:43:11.478Z,33.60
2022-08-19T15:45:40.258Z,28.60
2022-08-19T15:48:08.010Z,30.00
2022-08-19T15:50:35.856Z,28.83
2022-08-19T15:53:06.254Z,29.87
2022-08-19T15:55:38.270Z,28.90
2022-08-19T15:58:38.174Z,26.13
2022-08-19T16:01:26.837Z,25.70
2022-08-19T16:04:15.585Z,25.37
2022-08-19T16:06:47.541Z,29.87
2022-08-19T16:09:16.578Z,24.10
2022-08-19T16:11:56.523Z,22.53
2022-08-19T16:14:26.656Z,21.37
2022-08-19T16:16:56.680Z,21.60
2022-08-19T16:19:25.409Z,20.10
2022-08-19T16:21:55.681Z,23.20
2022-08-19T16:24:25.951Z,23.93
2022-08-19T16:26:55.958Z,25.30
2022-08-19T16:29:33.987Z,23.33
2022-08-19T16:32:03.308Z,30.20
2022-08-19T16:34:31.563Z,28.10
2022-08-19T16:36:59.449Z,26.37
2022-08-19T16:39:27.178Z,30.70
2022-08-19T16:41:56.347Z,23.20
2022-08-19T16:44:24.341Z,22.93
2022-08-19T16:46:58.945Z,27.73
2022-08-19T16:49:53.748Z,25.93
2022-08-19T16:52:16.171Z,27.83
2022-08-19T16:54:44.617Z,29.60
2022-08-19T16:57:14.730Z,30.30
2022-08-19T16:59:48.998Z,29.57
2022-08-19T17:02:18.099Z,30.70
2022-08-19T17:04:55.750Z,32.93
2022-08-19T17:07:26.249Z,31.20
2022-08-19T17:09:55.090Z,35.60
2022-08-19T17:12:30.213Z,39.97
2022-08-19T17:14:59.491Z,37.90
2022-08-19T17:17:29.354Z,36.03
2022-08-19T17:19:57.429Z,40.83
2022-08-19T17:22:25.154Z,35.97
2022-08-19T17:24:52.967Z,34.93
2022-08-19T17:27:25.471Z,37.00
2022-08-19T17:29:53.313Z,38.43
2022-08-19T17:32:25.209Z,40.50
2022-08-19T17:34:54.053Z,38.73
2022-08-19T17:37:21.926Z,37.23
2022-08-19T17:39:50.015Z,41.43
2022-08-19T17:42:17.867Z,39.33
2022-08-19T17:44:50.869Z,36.70
2022-08-19T17:47:21.076Z,43.40
2022-08-19T17:49:48.865Z,35.77
2022-08-19T17:52:16.662Z,32.27
2022-08-19T17:54:44.577Z,35.77
2022-08-19T17:57:14.095Z,34.20
2022-08-19T17:59:41.992Z,38.80
2022-08-19T18:02:12.477Z,34.90
2022-08-19T18:04:41.932Z,29.93
2022-08-19T18:07:11.945Z,34.83
2022-08-19T18:09:43.004Z,30.83
2022-08-19T18:12:17.859Z,31.33
2022-08-19T18:14:46.368Z,31.23
2022-08-19T18:17:19.325Z,29.73
2022-08-19T18:19:48.490Z,28.97
2022-08-19T18:22:24.289Z,29.77
2022-08-19T18:24:52.667Z,31.60
2022-08-19T18:27:20.809Z,31.43
2022-08-19T18:29:48.789Z,28.17
2022-08-19T18:32:23.639Z,31.37
2022-08-19T18:34:53.726Z,31.83
2022-08-19T18:37:22.205Z,31.03
2022-08-19T18:40:21.867Z,31.83
2022-08-19T18:43:07.585Z,32.13
2022-08-19T18:45:52.953Z,28.83
2022-08-19T18:48:44.422Z,32.07
2022-08-19T18:51:17.596Z,32.07
2022-08-19T18:53:50.207Z,30.10
2022-08-19T18:56:20.408Z,31.03
2022-08-19T19:01:52.496Z,30.23
2022-08-19T19:04:26.051Z,33.13
2022-08-19T19:06:54.422Z,29.70
2022-08-19T19:09:25.756Z,31.33
2022-08-19T19:23:05.044Z,32.83
2022-08-19T19:25:49.561Z,32.40
2022-08-19T19:28:25.745Z,36.90
2022-08-19T19:30:54.717Z,32.30
2022-08-19T19:33:23.090Z,31.33
2022-08-19T19:35:50.927Z,34.20
2022-08-19T19:38:20.048Z,33.53
2022-08-19T19:40:47.807Z,32.10
2022-08-19T19:43:18.395Z,32.60
2022-08-19T19:45:48.209Z,30.00
2022-08-19T19:48:16.535Z,27.97
2022-08-19T19:50:45.735Z,31.17
2022-08-19T19:53:15.039Z,29.07
2022-08-19T19:55:44.249Z,31.77
2022-08-19T19:58:12.750Z,28.73
2022-08-19T20:00:40.821Z,30.27
2022-08-19T20:03:09.034Z,28.17
2022-08-19T20:05:36.923Z,32.30
2022-08-19T20:08:23.501Z,29.97
2022-08-19T20:10:52.912Z,27.77
2022-08-19T20:13:21.729Z,24.43
2022-08-19T20:15:49.475Z,21.03
2022-08-19T20:18:18.051Z,22.57
2022-08-19T20:20:50.196Z,19.63
2022-08-19T20:23:18.051Z,17.03
2022-08-19T20:25:46.514Z,16.73
2022-08-19T20:28:15.827Z,18.27
2022-08-19T20:30:46.466Z,21.17
2022-08-19T20:33:14.815Z,20.10
2022-08-19T20:35:44.748Z,18.90
2022-08-19T20:38:12.536Z,16.83
2022-08-19T20:40:41.247Z,15.27
2022-08-19T20:43:10.049Z,19.50
2022-08-19T20:45:39.808Z,11.63
2022-08-19T20:48:12.161Z,11.60
2022-08-19T20:50:40.192Z,14.97
2022-08-19T20:53:13.137Z,9.23
2022-08-19T20:55:44.326Z,11.27
2022-08-19T20:58:13.467Z,13.10
2022-08-19T21:00:45.578Z,11.70
2022-08-19T21:03:14.451Z,8.87
2022-08-19T21:05:42.209Z,7.87
2022-08-19T21:08:10.001Z,9.23
2022-08-19T21:10:42.179Z,8.53
2022-08-19T21:13:10.181Z,6.37
2022-08-19T21:15:40.528Z,6.57
2022-08-19T21:18:10.785Z,9.93
2022-08-19T21:20:38.953Z,6.90
2022-08-19T21:23:10.271Z,7.23
2022-08-19T21:25:38.855Z,8.13
2022-08-19T21:28:07.191Z,6.33
2022-08-19T21:30:35.597Z,7.00
2022-08-19T21:33:03.975Z,6.50
2022-08-19T21:35:33.950Z,8.60
2022-08-19T21:38:01.930Z,8.60
2022-08-19T21:40:30.084Z,6.60
2022-08-19T21:42:58.158Z,7.50
2022-08-19T21:45:26.087Z,6.13
2022-08-19T21:47:54.121Z,5.33
2022-08-19T21:50:25.805Z,5.77
2022-08-19T21:52:57.420Z,6.40
2022-08-19T21:55:25.352Z,13.20
2022-08-19T21:57:53.322Z,4.70
2022-08-19T22:00:25.019Z,6.47
2022-08-19T22:02:53.162Z,4.03
2022-08-19T22:05:23.064Z,4.43
2022-08-19T22:07:50.992Z,7.03
2022-08-19T22:10:21.439Z,4.53
2022-08-19T22:12:51.717Z,3.63
2022-08-19T22:15:21.471Z,4.37
2022-08-19T22:17:49.766Z,4.77
2022-08-19T22:20:19.709Z,4.43
2022-08-19T22:22:50.190Z,8.53
2022-08-19T22:25:31.509Z,3.67
2022-08-19T22:28:01.688Z,9.73
2022-08-19T22:30:33.333Z,4.33
2022-08-19T22:33:04.668Z,3.90
2022-08-19T22:35:34.912Z,3.73
2022-08-19T22:38:03.526Z,4.70
2022-08-19T22:40:32.702Z,6.80
2022-08-19T22:43:02.147Z,4.03
2022-08-19T22:45:30.705Z,4.00
2022-08-19T22:47:58.910Z,3.23
2022-08-19T22:50:26.916Z,4.40
2022-08-19T22:52:57.783Z,5.20
2022-08-19T22:55:26.355Z,5.37
2022-08-19T22:57:55.884Z,5.33
2022-08-19T23:00:25.834Z,6.27
2022-08-19T23:02:55.122Z,3.90
2022-08-19T23:05:24.423Z,4.10
2022-08-19T23:07:53.072Z,5.90
2022-08-19T23:10:27.209Z,5.00
2022-08-19T23:12:59.076Z,5.07
2022-08-19T23:15:29.945Z,3.63
2022-08-19T23:17:59.922Z,4.17
2022-08-19T23:20:30.920Z,5.93
2022-08-19T23:22:59.249Z,4.17
2022-08-19T23:25:29.916Z,4.37
2022-08-19T23:28:16.809Z,5.90
2022-08-19T23:30:46.429Z,5.50
2022-08-19T23:33:21.612Z,5.07
2022-08-19T23:35:49.771Z,3.90
2022-08-19T23:38:18.987Z,3.87
2022-08-19T23:40:47.783Z,5.00
2022-08-19T23:43:24.204Z,5.23
2022-08-19T23:45:53.783Z,3.50
2022-08-19T23:48:26.035Z,3.40
2022-08-19T23:50:57.224Z,9.00
2022-08-19T23:53:25.376Z,4.10
2022-08-19T23:55:53.280Z,3.83
2022-08-19T23:58:23.310Z,3.57
